createdAt,value
2022-08-21T00:00:34.688Z,92.26
2022-08-21T00:01:34.665Z,91.96
2022-08-21T00:02:37.720Z,91.79
2022-08-21T00:03:37.708Z,91.65
2022-08-21T00:04:34.626Z,91.59
2022-08-21T00:05:34.617Z,91.69
2022-08-21T00:06:34.598Z,91.89
2022-08-21T00:07:34.623Z,92.00
2022-08-21T00:08:34.578Z,92.30
2022-08-21T00:09:34.556Z,92.50
2022-08-21T00:10:35.314Z,92.55
2022-08-21T00:11:34.583Z,92.65
2022-08-21T00:12:34.550Z,92.86
2022-08-21T00:13:34.500Z,93.06
2022-08-21T00:14:34.492Z,93.16
2022-08-21T00:15:35.241Z,93.26
2022-08-21T00:16:34.495Z,93.26
2022-08-21T00:17:34.482Z,93.06
2022-08-21T00:18:34.441Z,92.96
2022-08-21T00:19:34.421Z,92.86
2022-08-21T00:20:35.174Z,92.76
2022-08-21T00:21:34.424Z,92.55
2022-08-21T00:22:37.427Z,92.35
2022-08-21T00:23:37.395Z,92.24
2022-08-21T00:24:34.415Z,92.45
2022-08-21T00:25:34.355Z,92.45
2022-08-21T00:26:34.380Z,92.76
2022-08-21T00:27:34.316Z,92.76
2022-08-21T00:28:34.314Z,92.86
2022-08-21T00:29:34.308Z,93.00
2022-08-21T00:30:35.025Z,93.10
2022-08-21T00:31:34.281Z,93.31
2022-08-21T00:32:34.257Z,93.62
2022-08-21T00:33:34.279Z,93.98
2022-08-21T00:34:34.232Z,94.29
2022-08-21T00:35:34.208Z,94.29
2022-08-21T00:36:34.188Z,94.18
2022-08-21T00:37:35.308Z,93.98
2022-08-21T00:38:34.169Z,93.77
2022-08-21T00:39:34.215Z,93.57
2022-08-21T00:40:34.137Z,93.26
2022-08-21T00:41:38.661Z,93.06
2022-08-21T00:42:37.113Z,92.96
2022-08-21T00:43:37.123Z,92.86
2022-08-21T00:44:34.109Z,92.86
2022-08-21T00:45:34.062Z,92.96
2022-08-21T00:46:34.052Z,93.06
2022-08-21T00:47:34.047Z,93.16
2022-08-21T00:48:34.023Z,93.06
2022-08-21T00:49:34.074Z,92.96
2022-08-21T00:50:34.004Z,92.86
2022-08-21T00:51:38.192Z,92.86
2022-08-21T00:52:33.973Z,92.76
2022-08-21T00:53:33.954Z,92.65
2022-08-21T00:54:33.952Z,92.65
2022-08-21T00:55:33.976Z,92.55
2022-08-21T00:56:33.926Z,92.55
2022-08-21T00:57:33.916Z,92.55
2022-08-21T00:58:33.898Z,92.65
2022-08-21T00:59:33.877Z,92.65
2022-08-21T01:00:34.018Z,92.45
2022-08-21T01:01:33.889Z,92.55
2022-08-21T01:02:36.848Z,92.86
2022-08-21T01:03:36.835Z,92.86
2022-08-21T01:04:33.809Z,92.86
2022-08-21T01:05:33.799Z,92.96
2022-08-21T01:06:33.839Z,92.96
2022-08-21T01:07:33.771Z,92.86
2022-08-21T01:08:33.752Z,92.86
2022-08-21T01:09:33.741Z,92.65
2022-08-21T01:10:33.755Z,92.55
2022-08-21T01:11:33.718Z,92.24
2022-08-21T01:12:33.722Z,92.24
2022-08-21T01:13:33.691Z,92.24
2022-08-21T01:14:33.685Z,92.39
2022-08-21T01:15:33.664Z,92.49
2022-08-21T01:16:33.652Z,92.59
2022-08-21T01:17:33.693Z,92.80
2022-08-21T01:18:33.622Z,93.00
2022-08-21T01:19:33.603Z,93.10
2022-08-21T01:20:33.594Z,93.10
2022-08-21T01:21:33.585Z,93.21
2022-08-21T01:22:36.634Z,93.21
2022-08-21T01:23:36.564Z,93.21
2022-08-21T01:24:33.536Z,93.10
2022-08-21T01:25:33.529Z,93.00
2022-08-21T01:26:34.114Z,93.00
2022-08-21T01:27:33.496Z,93.00
2022-08-21T01:28:33.516Z,92.90
2022-08-21T01:29:33.468Z,92.90
2022-08-21T01:30:33.458Z,92.86
2022-08-21T01:31:33.446Z,92.86
2022-08-21T01:32:33.429Z,92.76
2022-08-21T01:33:33.453Z,92.65
2022-08-21T01:34:33.429Z,92.65
2022-08-21T01:35:33.392Z,92.65
2022-08-21T01:36:33.379Z,92.55
2022-08-21T01:37:33.370Z,92.55
2022-08-21T01:38:33.371Z,92.65
2022-08-21T01:39:33.338Z,92.35
2022-08-21T01:40:33.329Z,92.39
2022-08-21T01:41:33.309Z,92.39
2022-08-21T01:42:36.307Z,92.39
2022-08-21T01:43:39.467Z,92.39
2022-08-21T01:44:33.263Z,92.49
2022-08-21T01:45:33.264Z,92.69
2022-08-21T01:46:33.244Z,92.69
2022-08-21T01:47:33.223Z,92.80
2022-08-21T01:48:33.212Z,93.00
2022-08-21T01:49:33.224Z,93.21
2022-08-21T01:50:33.191Z,93.41
2022-08-21T01:51:33.204Z,93.31
2022-08-21T01:52:33.156Z,93.21
2022-08-21T01:53:33.734Z,93.21
2022-08-21T01:54:33.126Z,93.10
2022-08-21T01:55:33.119Z,93.21
2022-08-21T01:56:33.115Z,93.31
2022-08-21T01:57:33.116Z,93.35
2022-08-21T01:58:33.133Z,93.66
2022-08-21T01:59:33.065Z,93.76
2022-08-21T02:00:33.068Z,93.76
2022-08-21T02:01:33.061Z,93.96
2022-08-21T02:02:36.036Z,93.86
2022-08-21T02:03:36.442Z,93.96
2022-08-21T02:04:33.021Z,94.07
2022-08-21T02:05:32.980Z,94.27
2022-08-21T02:06:32.969Z,94.48
2022-08-21T02:07:32.971Z,94.68
2022-08-21T02:08:32.942Z,94.78
2022-08-21T02:09:32.959Z,94.98
2022-08-21T02:10:32.911Z,95.09
2022-08-21T02:11:32.992Z,94.98
2022-08-21T02:12:32.890Z,94.98
2022-08-21T02:13:32.872Z,94.98
2022-08-21T02:14:33.217Z,95.09
2022-08-21T02:15:32.835Z,95.09
2022-08-21T02:16:32.834Z,94.98
2022-08-21T02:17:32.851Z,94.89
2022-08-21T02:18:32.804Z,94.84
2022-08-21T02:19:39.583Z,94.74
2022-08-21T02:20:33.825Z,94.64
2022-08-21T02:21:32.764Z,94.53
2022-08-21T02:22:35.754Z,94.43
2022-08-21T02:23:35.748Z,94.33
2022-08-21T02:24:32.724Z,94.23
2022-08-21T02:25:32.707Z,94.33
2022-08-21T02:26:32.725Z,94.37
2022-08-21T02:27:32.788Z,94.58
2022-08-21T02:28:33.667Z,94.58
2022-08-21T02:29:32.648Z,94.64
2022-08-21T02:30:32.648Z,94.68
2022-08-21T02:31:32.629Z,94.74
2022-08-21T02:32:32.624Z,94.89
2022-08-21T02:33:32.636Z,94.98
2022-08-21T02:34:32.589Z,94.94
2022-08-21T02:35:32.597Z,94.94
2022-08-21T02:36:32.579Z,94.84
2022-08-21T02:37:32.555Z,94.84
2022-08-21T02:38:32.624Z,94.74
2022-08-21T02:39:32.531Z,94.64
2022-08-21T02:40:32.521Z,94.64
2022-08-21T02:41:32.493Z,94.53
2022-08-21T02:42:35.486Z,94.53
2022-08-21T02:43:35.543Z,94.43
2022-08-21T02:44:34.372Z,94.33
2022-08-21T02:45:32.441Z,94.33
2022-08-21T02:46:32.423Z,94.23
2022-08-21T02:47:32.426Z,94.23
2022-08-21T02:48:32.393Z,94.23
2022-08-21T02:49:32.576Z,94.02
2022-08-21T02:50:32.365Z,93.86
2022-08-21T02:51:32.356Z,93.76
2022-08-21T02:52:32.336Z,93.76
2022-08-21T02:53:32.329Z,93.76
2022-08-21T02:54:32.326Z,93.76
2022-08-21T02:55:32.334Z,93.76
2022-08-21T02:56:32.298Z,93.76
2022-08-21T02:57:32.267Z,93.86
2022-08-21T02:58:32.266Z,93.86
2022-08-21T02:59:32.267Z,93.96
2022-08-21T03:00:32.228Z,93.96
2022-08-21T03:01:32.298Z,94.07
2022-08-21T03:02:35.214Z,94.07
2022-08-21T03:03:35.212Z,94.17
2022-08-21T03:04:32.329Z,94.17
2022-08-21T03:05:32.165Z,94.17
2022-08-21T03:06:32.148Z,94.17
2022-08-21T03:07:32.152Z,94.17
2022-08-21T03:08:32.122Z,94.27
2022-08-21T03:09:32.110Z,94.27
2022-08-21T03:10:32.126Z,94.27
2022-08-21T03:11:32.081Z,94.17
2022-08-21T03:12:32.061Z,93.96
2022-08-21T03:13:32.073Z,93.76
2022-08-21T03:14:32.112Z,93.66
2022-08-21T03:15:32.023Z,93.60
2022-08-21T03:16:34.861Z,93.60
2022-08-21T03:17:31.994Z,93.50
2022-08-21T03:18:31.987Z,93.50
2022-08-21T03:19:31.975Z,93.60
2022-08-21T03:20:31.994Z,93.70
2022-08-21T03:21:31.955Z,93.91
2022-08-21T03:22:34.935Z,94.01
2022-08-21T03:23:34.949Z,94.11
2022-08-21T03:24:31.972Z,94.21
2022-08-21T03:25:39.777Z,94.42
2022-08-21T03:26:32.876Z,94.62
2022-08-21T03:27:31.861Z,94.73
2022-08-21T03:28:31.845Z,94.93
2022-08-21T03:29:31.858Z,95.03
2022-08-21T03:30:31.848Z,95.13
2022-08-21T03:31:31.813Z,95.34
2022-08-21T03:32:31.791Z,95.44
2022-08-21T03:33:31.779Z,95.54
2022-08-21T03:34:31.766Z,95.54
2022-08-21T03:35:31.755Z,95.60
2022-08-21T03:36:31.760Z,95.70
2022-08-21T03:37:31.730Z,95.70
2022-08-21T03:38:31.710Z,95.90
2022-08-21T03:39:31.698Z,96.01
2022-08-21T03:40:31.682Z,95.96
2022-08-21T03:41:31.702Z,95.96
2022-08-21T03:42:34.652Z,96.06
2022-08-21T03:43:34.653Z,96.06
2022-08-21T03:44:31.624Z,96.06
2022-08-21T03:45:31.612Z,96.02
2022-08-21T03:46:31.640Z,96.02
2022-08-21T03:47:31.584Z,95.92
2022-08-21T03:48:31.573Z,95.92
2022-08-21T03:49:31.555Z,95.81
2022-08-21T03:50:31.547Z,95.81
2022-08-21T03:51:31.695Z,95.81
2022-08-21T03:52:31.533Z,95.81
2022-08-21T03:53:31.512Z,95.81
2022-08-21T03:54:31.485Z,95.81
2022-08-21T03:55:31.475Z,95.92
2022-08-21T03:56:31.482Z,95.92
2022-08-21T03:57:31.505Z,95.92
2022-08-21T03:58:31.435Z,96.02
2022-08-21T03:59:31.417Z,96.02
2022-08-21T04:00:31.408Z,95.97
2022-08-21T04:01:31.407Z,95.97
2022-08-21T04:02:34.470Z,95.97
2022-08-21T04:03:34.398Z,95.97
2022-08-21T04:04:31.351Z,95.97
2022-08-21T04:05:31.340Z,95.97
2022-08-21T04:06:35.783Z,95.97
2022-08-21T04:07:32.327Z,96.08
2022-08-21T04:08:31.321Z,96.08
2022-08-21T04:09:31.292Z,96.08
2022-08-21T04:10:31.273Z,95.97
2022-08-21T04:11:31.272Z,95.87
2022-08-21T04:12:31.241Z,95.77
2022-08-21T04:13:31.251Z,95.81
2022-08-21T04:14:31.212Z,95.92
2022-08-21T04:15:31.213Z,96.02
2022-08-21T04:16:31.198Z,96.22
2022-08-21T04:17:31.211Z,96.43
2022-08-21T04:18:31.183Z,96.53
2022-08-21T04:19:31.146Z,96.63
2022-08-21T04:20:31.144Z,96.79
2022-08-21T04:21:31.123Z,96.79
2022-08-21T04:22:34.106Z,96.79
2022-08-21T04:23:34.146Z,96.79
2022-08-21T04:24:31.075Z,96.79
2022-08-21T04:25:31.066Z,96.69
2022-08-21T04:26:31.063Z,96.69
2022-08-21T04:27:31.045Z,96.69
2022-08-21T04:28:31.281Z,96.59
2022-08-21T04:29:31.019Z,96.59
2022-08-21T04:30:31.057Z,96.48
2022-08-21T04:31:30.986Z,96.38
2022-08-21T04:32:30.969Z,96.28
2022-08-21T04:33:30.959Z,96.18
2022-08-21T04:34:30.939Z,96.18
2022-08-21T04:35:30.945Z,96.08
2022-08-21T04:36:30.939Z,96.08
2022-08-21T04:37:42.297Z,95.97
2022-08-21T04:38:36.487Z,95.97
2022-08-21T04:39:31.876Z,95.97
2022-08-21T04:40:31.005Z,95.87
2022-08-21T04:41:30.909Z,95.87
2022-08-21T04:42:33.838Z,95.87
2022-08-21T04:43:33.841Z,95.87
2022-08-21T04:44:30.843Z,95.77
2022-08-21T04:45:30.796Z,95.77
2022-08-21T04:46:30.778Z,95.77
2022-08-21T04:47:41.802Z,95.67
2022-08-21T04:48:31.780Z,95.67
2022-08-21T04:49:30.752Z,95.67
2022-08-21T04:50:30.729Z,95.62
2022-08-21T04:51:30.917Z,95.52
2022-08-21T04:52:30.702Z,94.97
2022-08-21T04:53:30.727Z,94.62
2022-08-21T04:54:30.671Z,94.11
2022-08-21T04:55:30.661Z,93.90
2022-08-21T04:56:30.649Z,93.70
2022-08-21T04:57:39.724Z,93.60
2022-08-21T04:58:31.650Z,93.55
2022-08-21T04:59:30.609Z,92.90
2022-08-21T05:00:30.602Z,92.14
2022-08-21T05:01:30.590Z,90.88
2022-08-21T05:02:33.564Z,89.17
2022-08-21T05:03:33.601Z,87.71
2022-08-21T05:04:30.533Z,86.55
2022-08-21T05:05:30.532Z,85.09
2022-08-21T05:06:30.511Z,84.14
2022-08-21T05:07:42.687Z,83.15
2022-08-21T05:08:31.491Z,82.50
2022-08-21T05:09:30.501Z,81.55
2022-08-21T05:10:30.476Z,80.60
2022-08-21T05:11:30.446Z,79.66
2022-08-21T05:12:30.436Z,79.01
2022-08-21T05:13:30.416Z,78.06
2022-08-21T05:14:30.397Z,77.02
2022-08-21T05:15:30.467Z,76.38
2022-08-21T05:16:37.227Z,75.74
2022-08-21T05:17:31.367Z,74.73
2022-08-21T05:18:30.356Z,73.82
2022-08-21T05:19:30.331Z,73.88
2022-08-21T05:20:30.320Z,73.14
2022-08-21T05:21:30.373Z,72.41
2022-08-21T05:22:33.287Z,71.60
2022-08-21T05:23:33.329Z,70.96
2022-08-21T05:24:30.258Z,70.63
2022-08-21T05:25:30.250Z,70.19
2022-08-21T05:26:30.233Z,69.35
2022-08-21T05:27:30.264Z,68.21
2022-08-21T05:28:30.239Z,67.82
2022-08-21T05:29:30.205Z,67.28
2022-08-21T05:30:30.184Z,66.95
2022-08-21T05:31:30.175Z,66.44
2022-08-21T05:32:30.165Z,65.71
2022-08-21T05:33:30.176Z,65.41
2022-08-21T05:34:30.135Z,65.08
2022-08-21T05:35:30.132Z,64.98
2022-08-21T05:36:30.106Z,64.45
2022-08-21T05:37:30.095Z,64.15
2022-08-21T05:38:30.098Z,63.81
2022-08-21T05:39:30.064Z,63.71
2022-08-21T05:40:31.095Z,63.51
2022-08-21T05:41:30.028Z,63.42
2022-08-21T05:42:33.034Z,63.08
2022-08-21T05:43:33.053Z,62.88
2022-08-21T05:44:29.979Z,62.58
2022-08-21T05:45:43.115Z,62.45
2022-08-21T05:46:30.974Z,62.35
2022-08-21T05:47:29.951Z,62.05
2022-08-21T05:48:29.965Z,61.92
2022-08-21T05:49:29.922Z,61.52
2022-08-21T05:50:33.544Z,61.22
2022-08-21T05:51:29.905Z,61.22
2022-08-21T05:52:29.919Z,61.52
2022-08-21T05:53:29.862Z,61.52
2022-08-21T05:54:29.865Z,61.52
2022-08-21T05:55:29.841Z,61.52
2022-08-21T05:56:29.894Z,61.32
2022-08-21T05:57:29.830Z,61.29
2022-08-21T05:58:29.795Z,60.99
2022-08-21T05:59:29.786Z,61.42
2022-08-21T06:00:29.800Z,61.52
2022-08-21T06:01:29.818Z,61.92
2022-08-21T06:02:32.807Z,62.85
2022-08-21T06:03:32.751Z,63.18
2022-08-21T06:04:29.716Z,63.68
2022-08-21T06:05:37.278Z,64.15
2022-08-21T06:06:30.687Z,65.41
2022-08-21T06:07:29.681Z,66.55
2022-08-21T06:08:29.713Z,67.88
2022-08-21T06:09:29.669Z,68.82
2022-08-21T06:10:29.640Z,69.56
2022-08-21T06:11:29.623Z,69.99
2022-08-21T06:12:29.621Z,71.13
2022-08-21T06:13:29.602Z,72.07
2022-08-21T06:14:29.612Z,72.81
2022-08-21T06:15:29.592Z,73.65
2022-08-21T06:16:29.553Z,74.15
2022-08-21T06:17:29.552Z,74.49
2022-08-21T06:18:29.581Z,75.10
2022-08-21T06:19:29.537Z,75.94
2022-08-21T06:20:29.504Z,76.64
2022-08-21T06:21:29.493Z,76.88
2022-08-21T06:22:32.526Z,77.28
2022-08-21T06:23:33.427Z,77.83
2022-08-21T06:24:29.456Z,78.13
2022-08-21T06:25:29.463Z,78.33
2022-08-21T06:26:29.433Z,78.74
2022-08-21T06:27:29.413Z,78.84
2022-08-21T06:28:29.405Z,79.14
2022-08-21T06:29:29.408Z,79.24
2022-08-21T06:30:30.378Z,79.54
2022-08-21T06:31:29.363Z,79.34
2022-08-21T06:32:29.347Z,79.44
2022-08-21T06:33:32.537Z,79.64
2022-08-21T06:34:29.351Z,79.85
2022-08-21T06:35:29.301Z,79.85
2022-08-21T06:36:29.291Z,79.85
2022-08-21T06:37:29.280Z,79.74
2022-08-21T06:38:29.302Z,80.05
2022-08-21T06:39:30.585Z,80.35
2022-08-21T06:40:29.946Z,80.35
2022-08-21T06:41:29.222Z,80.55
2022-08-21T06:42:32.214Z,80.65
2022-08-21T06:43:39.587Z,80.96
2022-08-21T06:44:30.174Z,80.76
2022-08-21T06:45:32.281Z,80.76
2022-08-21T06:46:29.150Z,80.76
2022-08-21T06:47:29.138Z,80.72
2022-08-21T06:48:29.138Z,80.82
2022-08-21T06:49:29.105Z,80.82
2022-08-21T06:50:29.087Z,81.02
2022-08-21T06:51:29.097Z,80.92
2022-08-21T06:52:29.067Z,81.02
2022-08-21T06:53:29.078Z,81.12
2022-08-21T06:54:29.057Z,81.12
2022-08-21T06:55:29.349Z,81.12
2022-08-21T06:56:29.061Z,81.22
2022-08-21T06:57:29.008Z,81.28
2022-08-21T06:58:28.971Z,81.18
2022-08-21T06:59:28.960Z,81.18
2022-08-21T07:00:28.957Z,81.38
2022-08-21T07:01:28.993Z,81.38
2022-08-21T07:02:31.961Z,81.28
2022-08-21T07:03:31.913Z,81.79
2022-08-21T07:04:28.896Z,81.99
2022-08-21T07:05:28.871Z,81.99
2022-08-21T07:06:28.866Z,81.99
2022-08-21T07:07:28.864Z,81.75
2022-08-21T07:08:28.868Z,81.45
2022-08-21T07:09:28.813Z,81.35
2022-08-21T07:10:28.804Z,81.45
2022-08-21T07:11:28.806Z,81.15
2022-08-21T07:12:28.776Z,80.74
2022-08-21T07:13:28.778Z,80.70
2022-08-21T07:14:28.751Z,80.70
2022-08-21T07:15:28.729Z,80.30
2022-08-21T07:16:28.724Z,80.40
2022-08-21T07:17:28.698Z,80.57
2022-08-21T07:18:28.729Z,80.77
2022-08-21T07:19:28.669Z,80.36
2022-08-21T07:20:28.666Z,79.66
2022-08-21T07:21:28.709Z,79.62
2022-08-21T07:22:31.631Z,79.52
2022-08-21T07:23:31.624Z,80.26
2022-08-21T07:24:28.602Z,80.36
2022-08-21T07:25:28.601Z,80.02
2022-08-21T07:26:28.573Z,79.62
2022-08-21T07:27:28.582Z,79.42
2022-08-21T07:28:28.579Z,79.38
2022-08-21T07:29:28.553Z,79.48
2022-08-21T07:30:28.514Z,79.24
2022-08-21T07:31:28.512Z,78.84
2022-08-21T07:32:28.485Z,78.44
2022-08-21T07:33:28.504Z,78.03
2022-08-21T07:34:28.469Z,77.80
2022-08-21T07:35:28.473Z,77.90
2022-08-21T07:36:28.438Z,77.50
2022-08-21T07:37:28.426Z,77.59
2022-08-21T07:38:28.437Z,77.29
2022-08-21T07:39:28.405Z,77.56
2022-08-21T07:40:28.380Z,77.96
2022-08-21T07:41:28.367Z,77.96
2022-08-21T07:42:31.356Z,77.96
2022-08-21T07:43:31.408Z,77.76
2022-08-21T07:44:28.350Z,77.36
2022-08-21T07:45:28.320Z,77.32
2022-08-21T07:46:28.309Z,76.72
2022-08-21T07:47:41.482Z,76.72
2022-08-21T07:48:29.279Z,76.82
2022-08-21T07:49:28.283Z,76.48
2022-08-21T07:50:28.243Z,76.38
2022-08-21T07:51:28.235Z,76.48
2022-08-21T07:52:28.242Z,76.68
2022-08-21T07:53:28.214Z,76.38
2022-08-21T07:54:33.999Z,76.08
2022-08-21T07:55:29.174Z,76.15
2022-08-21T07:56:28.161Z,75.64
2022-08-21T07:57:28.153Z,75.45
2022-08-21T07:58:28.147Z,75.84
2022-08-21T07:59:28.127Z,75.84
2022-08-21T08:00:28.147Z,76.25
2022-08-21T08:01:28.141Z,75.95
2022-08-21T08:02:31.095Z,75.91
2022-08-21T08:03:31.081Z,75.41
2022-08-21T08:04:28.064Z,75.31
2022-08-21T08:05:28.198Z,75.31
2022-08-21T08:06:28.029Z,74.80
2022-08-21T08:07:28.022Z,74.77
2022-08-21T08:08:28.000Z,74.47
2022-08-21T08:09:28.007Z,74.37
2022-08-21T08:10:27.979Z,74.47
2022-08-21T08:11:27.992Z,74.17
2022-08-21T08:12:27.951Z,74.17
2022-08-21T08:13:27.961Z,73.77
2022-08-21T08:14:31.337Z,74.13
2022-08-21T08:15:27.903Z,73.93
2022-08-21T08:16:29.408Z,73.93
2022-08-21T08:17:27.895Z,73.83
2022-08-21T08:18:27.913Z,73.39
2022-08-21T08:19:27.855Z,73.00
2022-08-21T08:20:27.896Z,73.19
2022-08-21T08:21:28.599Z,73.10
2022-08-21T08:22:30.833Z,71.39
2022-08-21T08:23:30.848Z,70.59
2022-08-21T08:24:27.796Z,70.59
2022-08-21T08:25:27.797Z,70.66
2022-08-21T08:26:30.245Z,71.76
2022-08-21T08:27:27.769Z,70.26
2022-08-21T08:28:27.738Z,70.16
2022-08-21T08:29:27.720Z,70.23
2022-08-21T08:30:31.258Z,70.53
2022-08-21T08:31:29.471Z,69.86
2022-08-21T08:32:27.701Z,69.66
2022-08-21T08:33:27.672Z,70.19
2022-08-21T08:34:27.682Z,69.99
2022-08-21T08:35:27.681Z,69.89
2022-08-21T08:36:29.110Z,70.09
2022-08-21T08:37:31.519Z,70.09
2022-08-21T08:38:28.604Z,69.39
2022-08-21T08:39:29.440Z,68.39
2022-08-21T08:40:27.583Z,69.29
2022-08-21T08:41:30.903Z,70.19
2022-08-21T08:42:33.051Z,69.69
2022-08-21T08:43:30.546Z,69.46
2022-08-21T08:44:27.529Z,68.55
2022-08-21T08:45:27.512Z,67.96
2022-08-21T08:46:28.246Z,67.66
2022-08-21T08:47:27.496Z,67.46
2022-08-21T08:48:27.480Z,67.96
2022-08-21T08:49:27.448Z,68.46
2022-08-21T08:50:27.441Z,67.76
2022-08-21T08:51:28.197Z,68.13
2022-08-21T08:52:27.449Z,67.22
2022-08-21T08:53:27.408Z,67.82
2022-08-21T08:54:27.400Z,67.59
2022-08-21T08:55:27.548Z,67.40
2022-08-21T08:56:28.132Z,66.59
2022-08-21T08:57:27.391Z,65.89
2022-08-21T08:58:27.335Z,65.96
2022-08-21T08:59:27.315Z,65.26
2022-08-21T09:00:27.304Z,64.96
2022-08-21T09:01:28.151Z,64.36
2022-08-21T09:02:30.367Z,65.56
2022-08-21T09:03:30.295Z,64.93
2022-08-21T09:04:27.264Z,64.63
2022-08-21T09:05:27.235Z,64.93
2022-08-21T09:06:27.995Z,65.33
2022-08-21T09:07:27.216Z,65.13
2022-08-21T09:08:27.237Z,65.23
2022-08-21T09:09:27.208Z,65.63
2022-08-21T09:10:27.178Z,64.23
2022-08-21T09:11:27.186Z,61.83
2022-08-21T09:12:27.146Z,61.66
2022-08-21T09:13:27.129Z,62.76
2022-08-21T09:14:27.302Z,63.17
2022-08-21T09:15:27.108Z,62.37
2022-08-21T09:16:27.864Z,62.66
2022-08-21T09:17:27.094Z,60.77
2022-08-21T09:18:27.062Z,62.26
2022-08-21T09:19:27.082Z,63.17
2022-08-21T09:20:27.032Z,63.33
2022-08-21T09:21:27.783Z,63.03
2022-08-21T09:22:30.023Z,63.43
2022-08-21T09:23:30.012Z,62.93
2022-08-21T09:24:27.053Z,62.34
2022-08-21T09:25:26.966Z,61.80
2022-08-21T09:26:26.956Z,61.21
2022-08-21T09:27:26.936Z,61.71
2022-08-21T09:28:26.926Z,60.00
2022-08-21T09:29:26.927Z,59.81
2022-08-21T09:30:26.926Z,60.31
2022-08-21T09:31:26.886Z,60.31
2022-08-21T09:32:36.623Z,60.21
2022-08-21T09:33:27.858Z,58.91
2022-08-21T09:34:26.871Z,59.98
2022-08-21T09:35:26.852Z,59.48
2022-08-21T09:36:26.813Z,58.78
2022-08-21T09:37:26.809Z,59.08
2022-08-21T09:38:26.801Z,59.58
2022-08-21T09:39:26.797Z,58.36
2022-08-21T09:40:26.838Z,57.65
2022-08-21T09:41:26.760Z,57.65
2022-08-21T09:42:29.732Z,58.45
2022-08-21T09:43:29.741Z,58.36
2022-08-21T09:44:26.727Z,58.53
2022-08-21T09:45:26.735Z,57.13
2022-08-21T09:46:26.685Z,55.63
2022-08-21T09:47:26.982Z,55.93
2022-08-21T09:48:27.157Z,57.20
2022-08-21T09:49:27.635Z,56.01
2022-08-21T09:50:26.638Z,56.40
2022-08-21T09:51:26.638Z,56.21
2022-08-21T09:52:26.657Z,56.60
2022-08-21T09:53:26.588Z,55.71
2022-08-21T09:54:26.575Z,55.21
2022-08-21T09:55:26.562Z,56.30
2022-08-21T09:56:26.558Z,55.98
2022-08-21T09:57:26.529Z,55.88
2022-08-21T09:58:26.570Z,55.80
2022-08-21T09:59:26.509Z,55.51
2022-08-21T10:00:26.500Z,56.77
2022-08-21T10:01:26.546Z,57.17
2022-08-21T10:02:29.464Z,56.08
2022-08-21T10:03:29.522Z,56.68
2022-08-21T10:04:26.444Z,56.87
2022-08-21T10:05:26.422Z,56.05
2022-08-21T10:06:26.413Z,57.15
2022-08-21T10:07:26.414Z,56.05
2022-08-21T10:08:26.393Z,56.25
2022-08-21T10:09:26.396Z,55.03
2022-08-21T10:10:26.378Z,55.33
2022-08-21T10:11:26.352Z,55.63
2022-08-21T10:12:26.353Z,55.13
2022-08-21T10:13:26.339Z,56.02
2022-08-21T10:14:26.382Z,55.82
2022-08-21T10:15:26.289Z,55.43
2022-08-21T10:16:26.277Z,55.93
2022-08-21T10:17:26.268Z,55.73
2022-08-21T10:18:26.274Z,55.93
2022-08-21T10:19:26.239Z,55.70
2022-08-21T10:20:26.284Z,55.40
2022-08-21T10:21:26.220Z,55.47
2022-08-21T10:22:29.208Z,54.78
2022-08-21T10:23:29.192Z,52.79
2022-08-21T10:24:31.230Z,52.39
2022-08-21T10:25:27.174Z,54.08
2022-08-21T10:26:26.149Z,54.75
2022-08-21T10:27:26.133Z,55.25
2022-08-21T10:28:26.125Z,55.62
2022-08-21T10:29:26.105Z,54.93
2022-08-21T10:30:26.124Z,55.40
2022-08-21T10:31:26.087Z,55.76
2022-08-21T10:32:26.784Z,54.57
2022-08-21T10:33:26.086Z,54.28
2022-08-21T10:34:26.047Z,54.17
2022-08-21T10:35:26.035Z,55.27
2022-08-21T10:36:26.018Z,55.49
2022-08-21T10:37:25.999Z,56.29
2022-08-21T10:38:52.599Z,53.73
2022-08-21T10:39:35.467Z,53.66
2022-08-21T10:40:27.000Z,54.58
2022-08-21T10:41:25.970Z,55.47
2022-08-21T10:42:29.020Z,53.88
2022-08-21T10:43:28.940Z,53.76
2022-08-21T10:44:25.949Z,54.35
2022-08-21T10:45:25.891Z,54.63
2022-08-21T10:46:25.879Z,54.03
2022-08-21T10:47:25.875Z,53.51
2022-08-21T10:48:25.866Z,53.61
2022-08-21T10:49:25.841Z,52.94
2022-08-21T10:50:25.884Z,52.86
2022-08-21T10:51:29.240Z,53.41
2022-08-21T10:52:25.820Z,54.46
2022-08-21T10:53:25.846Z,56.48
2022-08-21T10:54:25.775Z,56.77
2022-08-21T10:55:25.755Z,56.95
2022-08-21T10:56:25.780Z,56.85
2022-08-21T10:57:29.861Z,56.27
2022-08-21T10:58:26.729Z,57.17
2022-08-21T10:59:25.697Z,57.17
2022-08-21T11:00:25.828Z,57.37
2022-08-21T11:01:25.718Z,57.24
2022-08-21T11:02:28.715Z,55.13
2022-08-21T11:03:28.660Z,56.59
2022-08-21T11:04:25.677Z,56.37
2022-08-21T11:05:25.628Z,54.97
2022-08-21T11:06:25.640Z,55.05
2022-08-21T11:07:25.621Z,54.97
2022-08-21T11:08:26.644Z,53.98
2022-08-21T11:09:25.576Z,53.28
2022-08-21T11:10:25.722Z,53.46
2022-08-21T11:11:25.540Z,53.76
2022-08-21T11:12:25.726Z,52.54
2022-08-21T11:13:31.159Z,54.13
2022-08-21T11:14:26.542Z,54.43
2022-08-21T11:15:29.385Z,53.23
2022-08-21T11:16:25.496Z,54.21
2022-08-21T11:17:25.482Z,53.78
2022-08-21T11:18:25.485Z,53.98
2022-08-21T11:19:25.488Z,51.07
2022-08-21T11:20:25.477Z,51.50
2022-08-21T11:21:25.408Z,51.57
2022-08-21T11:22:28.390Z,48.72
2022-08-21T11:23:28.449Z,49.04
2022-08-21T11:24:25.368Z,51.03
2022-08-21T11:25:25.449Z,51.82
2022-08-21T11:26:26.340Z,52.72
2022-08-21T11:27:25.330Z,53.61
2022-08-21T11:28:25.310Z,53.83
2022-08-21T11:29:25.337Z,53.73
2022-08-21T11:30:25.313Z,54.35
2022-08-21T11:31:25.274Z,55.08
2022-08-21T11:32:25.262Z,55.47
2022-08-21T11:33:25.304Z,55.60
2022-08-21T11:34:25.247Z,55.70
2022-08-21T11:35:25.225Z,55.38
2022-08-21T11:36:25.219Z,55.94
2022-08-21T11:37:25.218Z,54.65
2022-08-21T11:38:25.209Z,51.75
2022-08-21T11:39:25.347Z,51.23
2022-08-21T11:40:25.209Z,50.53
2022-08-21T11:41:25.149Z,51.72
2022-08-21T11:42:28.136Z,51.84
2022-08-21T11:43:28.127Z,52.31
2022-08-21T11:44:25.121Z,53.33
2022-08-21T11:45:28.114Z,52.76
2022-08-21T11:46:25.071Z,53.11
2022-08-21T11:47:25.111Z,54.63
2022-08-21T11:48:25.071Z,54.66
2022-08-21T11:49:25.032Z,55.55
2022-08-21T11:50:34.292Z,55.18
2022-08-21T11:51:26.074Z,56.18
2022-08-21T11:52:24.994Z,55.68
2022-08-21T11:53:25.006Z,56.38
2022-08-21T11:54:24.984Z,55.48
2022-08-21T11:55:24.971Z,56.38
2022-08-21T11:56:24.940Z,56.18
2022-08-21T11:57:24.956Z,55.68
2022-08-21T11:58:24.906Z,55.98
2022-08-21T11:59:24.907Z,56.55
2022-08-21T12:00:24.899Z,55.95
2022-08-21T12:01:24.888Z,55.55
2022-08-21T12:02:27.896Z,55.95
2022-08-21T12:03:27.869Z,55.13
2022-08-21T12:04:26.228Z,54.56
2022-08-21T12:05:24.851Z,54.73
2022-08-21T12:06:24.811Z,54.73
2022-08-21T12:07:24.800Z,53.11
2022-08-21T12:08:24.799Z,52.00
2022-08-21T12:09:24.778Z,51.77
2022-08-21T12:10:24.813Z,52.67
2022-08-21T12:11:24.753Z,51.95
2022-08-21T12:12:25.744Z,51.42
2022-08-21T12:13:40.371Z,51.95
2022-08-21T12:14:25.702Z,51.65
2022-08-21T12:15:24.695Z,51.95
2022-08-21T12:16:24.708Z,51.03
2022-08-21T12:17:24.656Z,52.14
2022-08-21T12:18:24.644Z,50.73
2022-08-21T12:19:24.648Z,51.23
2022-08-21T12:20:24.667Z,49.81
2022-08-21T12:21:24.609Z,50.18
2022-08-21T12:22:27.591Z,51.35
2022-08-21T12:23:27.590Z,50.23
2022-08-21T12:24:24.570Z,50.26
2022-08-21T12:25:24.550Z,51.28
2022-08-21T12:26:24.598Z,51.18
2022-08-21T12:27:24.521Z,50.88
2022-08-21T12:28:24.509Z,50.09
2022-08-21T12:29:24.512Z,52.37
2022-08-21T12:30:25.795Z,50.98
2022-08-21T12:31:24.483Z,51.23
2022-08-21T12:32:24.473Z,52.44
2022-08-21T12:33:24.444Z,53.14
2022-08-21T12:34:24.441Z,52.94
2022-08-21T12:35:25.341Z,52.44
2022-08-21T12:36:24.407Z,53.06
2022-08-21T12:37:24.416Z,53.66
2022-08-21T12:38:24.378Z,54.13
2022-08-21T12:39:24.370Z,52.94
2022-08-21T12:40:24.445Z,53.23
2022-08-21T12:41:24.336Z,54.53
2022-08-21T12:42:27.380Z,53.53
2022-08-21T12:43:27.330Z,53.04
2022-08-21T12:44:24.300Z,53.14
2022-08-21T12:45:24.284Z,53.04
2022-08-21T12:46:24.268Z,52.17
2022-08-21T12:47:24.262Z,51.92
2022-08-21T12:48:24.879Z,52.22
2022-08-21T12:49:26.733Z,52.91
2022-08-21T12:50:24.216Z,53.71
2022-08-21T12:51:24.206Z,53.51
2022-08-21T12:52:24.195Z,53.61